Time;durP1;ratioP1;P1;durP2;ratioP2;P2;SDS_P1;SDS_P2;PMS_P1;PMS_P2;Temp;Humidity;BMP_temperature;BMP_pressure;BME280_temperature;BME280_humidity;BME280_pressure;Samples;Min_cycle;Max_cycle;Signal;HPM_P1;HPM_P2
2024/03/17 00:02:29;;;;;;;10.47;8.67;;;7.30;99.90;;;7.89;100.00;98671.06;10466178;28;20315;-66
2024/03/17 00:07:32;;;;;;;65.13;10.97;;;7.30;99.90;;;8.00;100.00;98671.94;10468619;28;20302;-67
2024/03/17 00:12:35;;;;;;;9.87;7.60;;;7.40;99.90;;;8.06;100.00;98674.09;10468660;28;20681;-66
2024/03/17 00:17:38;;;;;;;37.97;8.60;;;7.40;99.90;;;7.95;100.00;98664.69;10469606;28;20232;-66
2024/03/17 00:22:41;;;;;;;9.95;8.82;;;7.30;99.90;;;7.96;100.00;98669.94;10473015;28;20798;-66
2024/03/17 00:27:48;;;;;;;11.17;7.20;;;7.40;99.90;;;7.96;100.00;98672.47;10468693;28;20319;-66
2024/03/17 00:32:50;;;;;;;7.97;7.17;;;7.30;99.90;;;8.00;100.00;98664.31;10473452;28;20250;-66
2024/03/17 00:37:53;;;;;;;17.40;8.30;;;7.30;99.90;;;7.90;100.00;98665.22;10475152;28;20664;-66
2024/03/17 00:42:56;;;;;;;13.73;8.57;;;7.20;99.90;;;7.91;100.00;98661.03;10476251;28;20243;-66
2024/03/17 00:47:59;;;;;;;36.57;9.03;;;7.30;99.90;;;7.89;100.00;98653.25;10474540;28;20262;-66
2024/03/17 00:53:03;;;;;;;11.37;7.93;;;7.20;99.90;;;7.70;100.00;98652.56;10477414;28;20243;-66
2024/03/17 00:58:07;;;;;;;38.77;8.60;;;7.00;99.90;;;7.62;100.00;98641.75;10477847;28;20305;-66
2024/03/17 01:03:09;;;;;;;42.47;7.63;;;6.90;99.90;;;7.49;100.00;98638.09;10475354;28;20787;-66
2024/03/17 01:08:11;;;;;;;11.23;6.90;;;6.80;99.90;;;7.41;100.00;98634.91;10475724;28;20263;-66
2024/03/17 01:13:15;;;;;;;7.87;7.10;;;6.80;99.90;;;7.18;100.00;98628.84;10476618;28;20244;-66
2024/03/17 01:18:17;;;;;;;11.87;7.40;;;6.60;99.90;;;7.22;100.00;98632.53;10475245;28;20254;-66
2024/03/17 01:23:19;;;;;;;8.60;6.27;;;6.60;99.90;;;7.31;100.00;98632.41;10476948;28;20703;-66
2024/03/17 01:28:22;;;;;;;18.20;7.33;;;6.70;99.90;;;7.25;100.00;98630.25;10477871;28;20279;-66
2024/03/17 01:33:25;;;;;;;18.20;7.23;;;6.60;99.90;;;7.28;100.00;98621.97;10472334;28;20318;-66
2024/03/17 01:38:27;;;;;;;8.47;7.00;;;6.60;99.90;;;7.23;100.00;98619.03;10474002;28;20715;-66
2024/03/17 01:43:30;;;;;;;35.30;8.73;;;6.60;99.90;;;7.24;100.00;98618.31;10476288;28;20266;-66
2024/03/17 01:48:33;;;;;;;9.80;6.53;;;6.60;99.90;;;7.34;100.00;98610.66;10474504;28;20271;-66
2024/03/17 01:53:36;;;;;;;14.63;7.77;;;6.60;99.90;;;7.31;100.00;98607.84;10475304;28;20251;-66
2024/03/17 01:58:39;;;;;;;11.63;6.73;;;6.60;99.90;;;7.25;100.00;98601.38;10472593;28;20731;-66
2024/03/17 02:03:42;;;;;;;15.10;7.97;;;6.60;99.90;;;7.26;100.00;98598.06;10474281;28;20311;-66
2024/03/17 02:08:48;;;;;;;19.53;7.93;;;6.60;99.90;;;7.27;100.00;98589.66;10477224;28;20248;-66
2024/03/17 02:13:52;;;;;;;10.20;7.37;;;6.60;99.90;;;7.23;100.00;98588.53;10469098;28;20812;-66
2024/03/17 02:18:56;;;;;;;12.20;7.70;;;6.60;99.90;;;7.12;100.00;98585.09;10465804;28;20315;-67
2024/03/17 02:23:59;;;;;;;11.20;7.90;;;6.40;99.90;;;7.12;100.00;98590.19;10465538;28;20784;-66
2024/03/17 02:29:01;;;;;;;8.73;7.83;;;6.40;99.90;;;7.14;100.00;98581.06;10476851;28;20323;-67
2024/03/17 02:34:03;;;;;;;9.50;7.73;;;6.40;99.90;;;7.12;100.00;98574.94;10464829;28;20311;-67
2024/03/17 02:44:27;;;;;;;8.63;7.83;;;6.40;99.90;;;7.13;100.00;98568.22;10466974;28;20920;-66
2024/03/17 02:49:35;;;;;;;9.30;8.07;;;6.40;99.90;;;6.94;100.00;98563.28;10464621;28;20359;-66
2024/03/17 02:54:39;;;;;;;9.33;8.47;;;6.30;99.90;;;6.99;100.00;98552.72;10467119;28;20315;-66
2024/03/17 02:59:41;;;;;;;8.37;7.67;;;6.30;99.90;;;6.99;100.00;98562.00;10465916;28;20303;-66
2024/03/17 03:04:44;;;;;;;8.73;7.93;;;6.30;99.90;;;7.06;100.00;98549.03;10463905;28;20383;-66
2024/03/17 03:09:47;;;;;;;8.37;7.60;;;6.30;99.90;;;7.03;100.00;98545.34;10471554;28;20319;-66
2024/03/17 03:14:49;;;;;;;8.07;7.37;;;6.40;99.90;;;7.00;100.00;98543.44;10478516;28;20300;-66
2024/03/17 03:19:52;;;;;;;9.07;8.17;;;6.30;99.90;;;6.93;100.00;98536.09;10475981;28;20315;-66
2024/03/17 03:24:55;;;;;;;8.60;7.80;;;6.30;99.90;;;7.04;100.00;98549.66;10475110;28;20343;-66
2024/03/17 03:29:59;;;;;;;8.50;7.10;;;6.40;99.90;;;6.92;100.00;98559.72;10476411;28;20315;-66
2024/03/17 03:35:02;;;;;;;8.90;8.00;;;6.20;99.90;;;6.88;100.00;98557.69;10477486;28;20311;-66
2024/03/17 03:40:15;;;;;;;8.73;7.93;;;6.20;99.90;;;6.88;100.00;98550.06;10472550;28;20317;-66
2024/03/17 03:45:18;;;;;;;9.43;8.53;;;6.20;99.90;;;6.81;100.00;98550.31;10473696;28;20328;-66
2024/03/17 03:50:22;;;;;;;9.07;8.17;;;6.20;99.90;;;6.80;100.00;98543.47;10471275;28;20347;-66
2024/03/17 03:55:26;;;;;;;10.17;8.13;;;6.20;99.90;;;6.88;100.00;98555.16;10472991;28;20316;-66
2024/03/17 04:00:31;;;;;;;10.00;8.87;;;6.20;99.90;;;6.80;100.00;98551.97;10471470;28;20332;-66
2024/03/17 04:05:34;;;;;;;10.13;9.10;;;6.20;99.90;;;6.77;100.00;98547.53;10473221;28;20323;-66
2024/03/17 04:10:37;;;;;;;10.23;9.33;;;6.10;99.90;;;6.60;100.00;98540.16;10470203;28;20675;-66
2024/03/17 04:15:39;;;;;;;10.33;9.03;;;6.00;99.90;;;6.51;100.00;98540.28;10472644;28;20711;-66
2024/03/17 04:20:42;;;;;;;11.03;9.83;;;6.00;99.90;;;6.48;100.00;98534.06;10473125;28;20327;-66
2024/03/17 04:25:45;;;;;;;10.70;9.60;;;6.00;99.90;;;6.48;100.00;98544.22;10472781;28;20301;-66
2024/03/17 04:30:48;;;;;;;11.23;9.50;;;5.90;99.90;;;6.55;100.00;98546.50;10475448;28;20822;-66
2024/03/17 04:35:50;;;;;;;10.40;9.40;;;6.00;99.90;;;6.59;100.00;98543.47;10472526;28;20255;-66
2024/03/17 04:40:59;;;;;;;10.23;9.13;;;6.00;99.90;;;6.69;100.00;98550.19;10468788;28;20352;-66
2024/03/17 04:46:04;;;;;;;9.03;8.13;;;6.00;99.90;;;6.58;100.00;98551.88;10470406;28;22434;-66
2024/03/17 04:51:06;;;;;;;10.17;9.17;;;5.90;99.90;;;6.48;100.00;98554.38;10470555;28;20244;-66
2024/03/17 04:56:10;;;;;;;10.33;9.33;;;5.90;99.90;;;6.58;100.00;98553.50;10468473;28;20347;-66
2024/03/17 05:01:12;;;;;;;9.70;8.70;;;6.00;99.90;;;6.58;100.00;98561.09;10472558;28;20619;-66
2024/03/17 05:06:15;;;;;;;8.97;8.17;;;6.00;99.90;;;6.62;100.00;98558.97;10471511;28;20319;-66
2024/03/17 05:11:19;;;;;;;9.63;8.67;;;6.00;99.90;;;6.54;100.00;98565.06;10480352;28;20244;-65
2024/03/17 05:16:23;;;;;;;8.43;7.63;;;5.90;99.90;;;6.49;100.00;98566.31;10470540;28;20670;-64
2024/03/17 05:21:29;;;;;;;9.13;7.93;;;5.90;99.90;;;6.56;100.00;98555.91;10456960;22;20259;-65
2024/03/17 05:26:33;;;;;;;9.37;8.23;;;5.90;99.90;;;6.46;100.00;98560.97;10439578;28;20336;-65
2024/03/17 05:31:35;;;;;;;8.73;7.90;;;5.80;99.90;;;6.28;100.00;98561.19;10435391;28;20256;-65
2024/03/17 05:36:37;;;;;;;9.20;8.30;;;5.70;99.90;;;6.07;100.00;98552.66;10433102;28;20240;-65
2024/03/17 05:41:43;;;;;;;8.90;7.93;;;5.50;99.90;;;6.06;100.00;98560.13;10433968;28;20286;-65
2024/03/17 05:46:45;;;;;;;9.17;7.93;;;5.50;99.90;;;6.01;100.00;98563.91;10435803;28;20261;-65
2024/03/17 05:51:47;;;;;;;8.90;8.00;;;5.50;99.90;;;6.19;100.00;98569.69;10435133;28;20263;-65
2024/03/17 05:56:51;;;;;;;9.20;8.20;;;5.60;99.90;;;6.18;100.00;98565.34;10435575;28;20264;-66
2024/03/17 06:01:53;;;;;;;7.83;7.13;;;5.60;99.90;;;6.26;100.00;98566.91;10434988;28;20611;-65
2024/03/17 06:06:55;;;;;;;17.40;13.87;;;5.60;99.90;;;6.34;100.00;98568.44;10450432;28;20248;-65
2024/03/17 06:11:59;;;;;;;8.40;7.50;;;5.60;99.90;;;6.42;100.00;98571.66;10434323;28;20256;-65
2024/03/17 06:17:01;;;;;;;7.50;6.77;;;5.70;99.90;;;6.43;100.00;98569.22;10427186;28;20335;-64
2024/03/17 06:22:05;;;;;;;7.90;7.20;;;5.70;99.90;;;6.41;100.00;98559.69;10429594;28;20276;-67
2024/03/17 06:27:08;;;;;;;7.70;7.00;;;5.70;99.90;;;6.51;100.00;98567.34;10425932;28;20324;-65
2024/03/17 06:32:10;;;;;;;9.17;8.27;;;5.80;99.90;;;6.71;100.00;98559.72;10431102;28;20312;-66
2024/03/17 06:37:13;;;;;;;8.57;7.77;;;6.00;99.90;;;6.98;100.00;98557.69;10425654;28;20304;-66
2024/03/17 06:42:16;;;;;;;9.30;8.20;;;6.20;99.90;;;7.07;100.00;98544.81;10427429;28;20320;-64
2024/03/17 06:47:18;;;;;;;9.13;8.27;;;6.20;99.90;;;7.28;100.00;98545.69;10437363;28;20333;-66
2024/03/17 06:52:21;;;;;;;10.80;9.80;;;6.50;99.90;;;7.89;100.00;98528.53;10436576;28;20275;-66
2024/03/17 06:57:24;;;;;;;8.48;7.68;;;6.80;99.90;;;8.90;100.00;98531.97;10441786;28;20260;-65
2024/03/17 07:02:27;;;;;;;6.57;6.00;;;7.40;99.90;;;9.16;99.62;98531.34;10435482;28;20260;-64
2024/03/17 07:07:29;;;;;;;7.13;6.53;;;7.70;99.90;;;9.81;95.93;98532.63;10431897;28;20336;-64
2024/03/17 07:12:32;;;;;;;7.95;7.25;;;8.30;99.90;;;9.76;93.42;98539.09;10422287;28;20232;-65
2024/03/17 07:17:35;;;;;;;7.03;6.43;;;8.50;99.90;;;10.00;92.88;98534.81;10421886;28;20730;-65
2024/03/17 07:22:37;;;;;;;7.43;6.82;;;8.80;99.90;;;10.46;93.77;98537.16;10418471;28;20355;-66
2024/03/17 07:27:40;;;;;;;7.38;6.78;;;9.40;99.90;;;10.67;88.77;98540.28;10419440;28;21089;-66
2024/03/17 07:32:42;;;;;;;8.15;7.43;;;9.60;99.90;;;10.38;89.90;98529.84;10421062;28;20308;-66
2024/03/17 07:37:45;;;;;;;7.78;7.07;;;9.30;99.90;;;9.98;90.70;98522.72;10437326;28;20267;-65
2024/03/17 07:42:48;;;;;;;8.23;7.53;;;9.00;99.90;;;9.99;93.65;98532.19;10440182;28;20670;-65
2024/03/17 07:47:52;;;;;;;8.25;7.53;;;9.00;99.90;;;10.50;91.46;98523.78;10441204;28;20257;-66
2024/03/17 07:52:54;;;;;;;7.82;7.00;;;9.50;99.90;;;10.47;90.34;98521.94;10440100;28;20731;-66
2024/03/17 07:57:57;;;;;;;7.95;7.20;;;9.50;99.90;;;10.71;90.63;98515.03;10432160;28;20252;-66
2024/03/17 08:03:00;;;;;;;27.20;23.67;;;9.80;99.90;;;10.88;90.84;98525.50;10427673;28;20304;-66
2024/03/17 08:08:02;;;;;;;27.73;25.05;;;10.00;99.90;;;10.72;90.66;98511.69;10426852;28;20434;-65
2024/03/17 08:13:08;;;;;;;7.78;7.07;;;9.90;99.90;;;10.91;91.10;98518.03;10460918;28;20340;-66
2024/03/17 08:18:11;;;;;;;7.50;6.88;;;10.00;99.90;;;11.08;92.61;98526.81;10461874;28;20316;-66
2024/03/17 08:23:14;;;;;;;7.43;6.82;;;10.20;99.90;;;11.20;91.46;98509.69;10428205;28;20320;-66
2024/03/17 08:28:17;;;;;;;6.80;6.28;;;10.30;99.90;;;11.60;91.22;98505.47;10454293;28;20256;-66
2024/03/17 08:33:19;;;;;;;6.10;5.60;;;10.70;99.90;;;12.41;86.92;98496.81;10433571;28;20263;-66
2024/03/17 08:38:23;;;;;;;6.47;5.88;;;11.50;99.90;;;12.49;86.86;98504.97;10436452;28;20252;-67
2024/03/17 08:43:26;;;;;;;6.53;6.03;;;11.60;99.90;;;12.66;84.10;98493.16;10436714;28;20259;-66
2024/03/17 08:48:30;;;;;;;6.43;5.93;;;11.60;99.90;;;12.41;83.77;98491.69;10435297;28;20304;-66
2024/03/17 08:53:33;;;;;;;7.03;6.43;;;11.50;99.90;;;12.46;84.90;98485.16;10435953;28;20260;-65
2024/03/17 08:58:36;;;;;;;6.07;5.57;;;11.40;99.90;;;12.81;82.19;98494.03;10432860;28;20252;-66
2024/03/17 09:03:39;;;;;;;6.30;5.68;;;11.80;99.90;;;12.51;79.14;98488.88;10430590;28;20272;-66
2024/03/17 09:08:42;;;;;;;5.63;5.13;;;11.60;99.90;;;12.78;81.39;98484.47;10430407;28;20315;-66
2024/03/17 09:13:45;;;;;;;5.25;4.85;;;11.80;99.90;;;13.12;79.20;98470.16;10434837;28;20308;-66
2024/03/17 09:18:48;;;;;;;6.15;5.55;;;12.10;99.90;;;12.79;78.96;98482.78;10440766;28;20430;-65
2024/03/17 09:23:50;;;;;;;6.28;5.60;;;11.80;99.90;;;12.85;80.03;98471.22;10453470;28;20272;-65
2024/03/17 09:28:54;;;;;;;5.78;5.28;;;12.00;99.90;;;13.28;75.80;98462.56;10439682;28;20253;-65
2024/03/17 09:33:56;;;;;;;5.38;4.88;;;12.30;99.90;;;13.59;74.08;98459.09;10437355;28;20248;-65
2024/03/17 09:39:00;;;;;;;4.97;4.47;;;12.60;99.90;;;13.98;72.38;98455.25;10438903;28;20252;-64
2024/03/17 09:44:11;;;;;;;5.13;4.55;;;13.00;99.90;;;14.63;63.82;98446.66;10436054;28;20267;-66
2024/03/17 09:49:16;;;;;;;5.40;5.00;;;13.70;99.90;;;14.26;67.71;98437.00;10452423;28;20260;-66
2024/03/17 09:54:20;;;;;;;5.55;5.05;;;13.30;99.90;;;14.39;68.21;98448.81;10432236;28;20248;-66
2024/03/17 09:59:23;;;;;;;4.70;4.25;;;13.30;99.90;;;14.65;67.43;98445.03;10436123;28;20672;-64
2024/03/17 10:04:33;;;;;;;4.53;4.22;;;13.70;99.90;;;14.58;64.96;98443.84;10436556;28;20592;-66
2024/03/17 10:09:36;;;;;;;4.63;4.20;;;13.60;99.90;;;14.64;65.94;98450.97;10436175;28;20256;-66
2024/03/17 10:14:40;;;;;;;5.10;4.75;;;13.60;99.90;;;14.93;62.72;98455.00;10434856;28;20259;-64
2024/03/17 10:19:42;;;;;;;4.47;4.13;;;13.80;99.90;;;14.88;60.19;98456.50;10434209;28;20256;-66
2024/03/17 10:24:44;;;;;;;4.63;4.22;;;13.80;99.90;;;15.02;55.83;98457.16;10434731;28;20253;-66
2024/03/17 10:29:48;;;;;;;4.43;4.03;;;13.90;99.90;;;14.75;57.46;98449.81;10436396;28;20783;-66
2024/03/17 10:34:50;;;;;;;4.78;4.38;;;13.80;99.90;;;14.64;59.14;98445.84;10428315;28;20316;-66
2024/03/17 10:39:55;;;;;;;5.97;5.47;;;13.70;99.90;;;14.86;59.97;98443.53;10430929;28;20263;-66
2024/03/17 10:44:59;;;;;;;4.43;4.03;;;13.90;99.90;;;15.00;59.64;98431.34;10431726;28;20261;-66
2024/03/17 10:50:03;;;;;;;4.40;4.10;;;14.00;99.90;;;14.87;59.03;98436.69;10430304;28;20260;-65
2024/03/17 10:55:09;;;;;;;4.68;4.28;;;13.90;99.90;;;14.70;60.18;98430.69;10432993;28;20773;-66
2024/03/17 11:00:17;;;;;;;5.38;4.03;;;13.80;99.90;;;14.81;61.73;98423.53;10434408;28;20260;-64
2024/03/17 11:05:23;;;;;;;4.28;3.88;;;13.70;99.90;;;14.87;59.38;98432.41;10435708;28;20253;-65
2024/03/17 11:10:28;;;;;;;4.20;3.63;;;13.80;99.90;;;14.75;60.81;98439.53;10437136;28;20251;-67
2024/03/17 11:15:42;;;;;;;3.50;3.22;;;13.80;99.90;;;14.88;61.66;98435.91;10447239;28;20260;-67
2024/03/17 11:20:58;;;;;;;4.10;3.70;;;13.80;99.90;;;14.87;61.02;98444.41;10427023;28;20693;-67
2024/03/17 11:26:01;;;;;;;4.43;3.88;;;14.00;99.90;;;15.03;60.47;98443.50;10420255;28;20320;-67
2024/03/17 11:31:08;;;;;;;3.78;3.47;;;14.10;99.90;;;15.09;58.65;98428.34;10392595;28;20324;-68
2024/03/17 11:36:38;;;;;;;3.33;3.03;;;14.20;99.90;;;15.24;58.25;98431.63;10438742;28;20312;-68
2024/03/17 11:41:42;;;;;;;3.65;3.08;;;14.30;99.90;;;15.42;58.79;98415.28;10426554;28;20765;-67
2024/03/17 11:46:46;;;;;;;3.67;3.20;;;14.40;99.90;;;15.52;57.49;98412.34;10429587;28;20462;-67
2024/03/17 11:51:50;;;;;;;3.83;3.13;;;14.60;99.90;;;15.53;57.62;98403.78;10428278;28;20325;-67
2024/03/17 11:56:53;;;;;;;3.67;3.30;;;14.60;99.90;;;15.48;58.55;98393.28;10427429;28;20458;-67
2024/03/17 12:01:57;;;;;;;3.67;3.28;;;14.60;99.90;;;15.60;59.54;98385.22;10426507;28;20343;-65
2024/03/17 12:07:00;;;;;;;3.45;3.15;;;14.70;99.90;;;15.76;56.39;98379.97;10426202;28;20351;-67
2024/03/17 12:12:06;;;;;;;3.22;2.92;;;14.70;99.90;;;15.42;58.18;98371.50;10428604;28;20324;-69
2024/03/17 12:17:11;;;;;;;3.20;3.00;;;14.40;99.90;;;15.45;57.40;98362.22;10432309;28;20788;-65
2024/03/17 12:22:21;;;;;;;3.53;2.75;;;14.50;99.90;;;15.71;55.77;98355.72;10430096;28;20316;-66
2024/03/17 12:27:26;;;;;;;3.13;2.50;;;14.80;99.90;;;15.94;55.24;98366.16;10435695;28;20768;-67
2024/03/17 12:32:30;;;;;;;2.83;2.58;;;15.00;99.90;;;16.20;54.25;98360.44;10432589;28;20308;-65
2024/03/17 12:37:33;;;;;;;2.90;2.60;;;15.40;99.90;;;16.11;53.32;98357.47;10430508;28;20324;-65
2024/03/17 12:42:37;;;;;;;3.08;2.25;;;15.10;99.90;;;16.06;55.54;98345.19;10445582;28;20327;-65
2024/03/17 12:47:41;;;;;;;3.47;2.65;;;14.90;99.90;;;16.15;55.55;98338.72;10429260;28;20332;-65
2024/03/17 12:52:54;;;;;;;2.90;1.80;;;15.30;99.90;;;15.76;55.61;98337.84;10430040;28;20323;-65
2024/03/17 13:03:33;;;;;;;2.20;2.00;;;15.00;99.90;;;15.80;57.06;98332.03;10428029;28;20248;-65
2024/03/17 13:08:36;;;;;;;3.78;2.10;;;14.90;99.90;;;15.89;57.53;98331.56;10427584;28;20325;-65
2024/03/17 13:13:38;;;;;;;2.25;2.03;;;14.90;99.90;;;16.16;53.86;98322.41;10429448;28;20248;-68
2024/03/17 13:18:42;;;;;;;2.30;2.03;;;15.20;99.90;;;15.96;54.34;98328.41;10427027;28;20855;-65
2024/03/17 13:23:44;;;;;;;2.97;2.10;;;14.90;99.90;;;15.75;55.21;98313.78;10431741;28;20355;-65
2024/03/17 13:28:46;;;;;;;2.08;1.98;;;14.70;99.90;;;15.67;54.96;98317.69;10416085;28;20332;-65
2024/03/17 13:33:50;;;;;;;2.25;2.00;;;14.60;99.90;;;15.73;55.48;98317.97;10430819;28;20333;-65
2024/03/17 13:38:54;;;;;;;8.73;7.65;;;14.60;99.90;;;15.75;54.71;98313.78;10427908;28;20357;-66
2024/03/17 13:43:57;;;;;;;4.25;3.85;;;14.70;99.90;;;15.34;56.73;98311.91;10425134;28;20654;-65
2024/03/17 13:49:09;;;;;;;3.08;2.78;;;14.50;99.90;;;15.27;56.96;98308.16;10434598;28;20874;-65
2024/03/17 13:54:11;;;;;;;2.80;2.13;;;14.40;99.90;;;15.15;58.06;98296.41;10418997;28;20413;-65
2024/03/17 13:59:14;;;;;;;2.65;2.40;;;14.30;99.90;;;15.13;58.55;98298.91;10426907;28;20791;-65
2024/03/17 14:04:18;;;;;;;2.50;2.30;;;14.20;99.90;;;15.21;58.47;98304.44;10422724;28;20316;-64
2024/03/17 14:09:22;;;;;;;2.55;2.20;;;14.20;99.90;;;15.19;58.20;98299.19;10424165;28;20325;-64
2024/03/17 14:14:25;;;;;;;2.67;2.47;;;14.30;99.90;;;15.05;56.68;98287.38;10422837;28;20312;-66
2024/03/17 14:19:28;;;;;;;3.03;2.47;;;14.30;99.90;;;15.10;58.33;98279.06;10423207;28;20371;-66
2024/03/17 14:24:30;;;;;;;3.05;2.75;;;14.30;99.90;;;15.07;57.96;98283.19;10423032;28;20423;-66
2024/03/17 14:29:33;;;;;;;2.95;2.50;;;14.20;99.90;;;15.09;58.42;98271.28;10422068;28;20232;-65
2024/03/17 14:34:38;;;;;;;2.60;2.40;;;14.30;99.90;;;15.27;58.29;98266.94;10422136;28;20303;-65
2024/03/17 14:39:40;;;;;;;2.78;2.50;;;14.50;99.90;;;15.37;57.17;98270.84;10422170;28;20665;-65
2024/03/17 14:44:42;;;;;;;2.45;2.13;;;14.60;99.90;;;15.45;57.03;98266.00;10424210;28;20783;-65
2024/03/17 14:49:46;;;;;;;2.75;1.77;;;14.50;99.90;;;15.43;57.61;98262.50;10429711;28;20686;-65
2024/03/17 14:54:48;;;;;;;3.22;2.40;;;14.50;99.90;;;15.40;57.97;98257.22;10424175;28;20713;-65
2024/03/17 14:59:50;;;;;;;3.40;2.40;;;14.40;99.90;;;15.39;56.75;98245.13;10423529;28;20319;-65
2024/03/17 15:04:54;;;;;;;3.40;2.42;;;14.40;99.90;;;15.34;56.24;98252.66;10428607;28;20320;-65
2024/03/17 15:09:57;;;;;;;2.80;2.40;;;14.40;99.90;;;15.35;56.84;98253.53;10430877;28;20316;-65
2024/03/17 15:14:59;;;;;;;3.03;2.60;;;14.40;99.90;;;15.45;56.07;98245.38;10435749;28;20339;-65
2024/03/17 15:20:08;;;;;;;2.42;2.03;;;14.50;99.90;;;15.15;56.06;98245.78;10433216;28;20255;-65
2024/03/17 15:25:12;;;;;;;2.63;2.33;;;14.40;99.90;;;15.14;54.78;98241.47;10446643;28;20255;-65
2024/03/17 15:30:18;;;;;;;3.65;2.35;;;14.30;99.90;;;15.00;55.37;98230.53;10432397;28;20263;-65
2024/03/17 15:35:22;;;;;;;4.05;2.50;;;14.30;99.90;;;14.98;57.12;98233.84;10431022;28;21828;-65
2024/03/17 15:40:24;;;;;;;3.17;2.58;;;14.20;99.90;;;14.93;57.10;98236.19;10444322;28;20324;-65
2024/03/17 15:45:26;;;;;;;2.67;2.47;;;14.10;99.90;;;14.80;58.69;98242.50;10434942;28;20309;-65
2024/03/17 15:50:31;;;;;;;2.47;2.28;;;14.00;99.90;;;14.73;57.36;98237.84;10430366;28;20311;-65
2024/03/17 15:55:33;;;;;;;2.97;2.33;;;13.90;99.90;;;14.67;58.99;98222.13;10430404;28;20392;-65
2024/03/17 16:00:35;;;;;;;2.35;2.15;;;13.90;99.90;;;14.65;59.40;98236.63;10452208;28;20312;-65
2024/03/17 16:05:40;;;;;;;2.78;2.53;;;13.80;99.90;;;14.52;57.95;98227.44;10432292;28;20320;-65
2024/03/17 16:10:44;;;;;;;2.00;1.90;;;13.80;99.90;;;14.48;58.63;98222.94;10430934;28;20328;-65
2024/03/17 16:15:47;;;;;;;3.00;2.40;;;13.80;99.90;;;14.42;58.89;98214.91;10423252;28;20221;-65
2024/03/17 16:21:06;;;;;;;2.92;2.50;;;13.70;99.90;;;14.27;60.99;98212.50;10423940;28;20294;-65
2024/03/17 16:26:09;;;;;;;2.40;2.20;;;13.50;99.90;;;14.17;62.31;98224.03;10426994;28;20335;-66
2024/03/17 16:31:11;;;;;;;2.40;2.20;;;13.40;99.90;;;14.05;63.39;98220.88;10430913;28;20317;-65
2024/03/17 16:36:15;;;;;;;2.50;2.30;;;13.30;99.90;;;13.92;63.95;98219.38;10428488;28;20336;-65
2024/03/17 16:41:18;;;;;;;2.40;2.20;;;13.20;99.90;;;13.85;64.87;98222.44;10439421;28;20267;-65
2024/03/17 16:46:53;;;;;;;2.35;2.15;;;13.10;99.90;;;13.70;66.03;98221.66;10450551;28;20316;-65
2024/03/17 16:51:56;;;;;;;4.95;2.83;;;12.90;99.90;;;13.56;66.67;98208.13;10454462;28;20303;-65
2024/03/17 16:56:59;;;;;;;2.53;2.33;;;12.80;99.90;;;13.50;66.92;98203.53;10437018;28;20677;-65
2024/03/17 17:02:01;;;;;;;2.65;2.45;;;12.70;99.90;;;13.33;68.75;98204.38;10435901;28;20324;-65
2024/03/17 17:07:04;;;;;;;2.88;2.47;;;12.60;99.90;;;13.25;69.58;98215.91;10427404;28;20327;-64
2024/03/17 17:12:09;;;;;;;2.97;2.13;;;12.50;99.90;;;13.15;71.85;98206.84;10437679;28;20335;-65
2024/03/17 17:17:12;;;;;;;3.42;3.10;;;12.30;99.90;;;13.02;73.23;98207.88;10437251;28;20611;-64
2024/03/17 17:22:21;;;;;;;3.10;2.90;;;12.20;99.90;;;12.83;73.63;98205.13;10442820;22;20288;-66
2024/03/17 17:27:25;;;;;;;3.42;3.00;;;12.10;99.90;;;12.82;74.39;98208.50;10394035;28;20257;-66
2024/03/17 17:32:29;;;;;;;3.97;3.35;;;12.00;99.90;;;12.74;75.80;98196.94;10385559;28;20269;-67
2024/03/17 17:37:33;;;;;;;4.30;3.85;;;12.00;99.90;;;12.69;75.08;98196.69;10399162;28;20668;-69
2024/03/17 17:42:36;;;;;;;6.13;5.63;;;11.90;99.90;;;12.60;78.02;98199.63;10387607;28;20312;-66
2024/03/17 17:47:41;;;;;;;4.43;4.13;;;11.80;99.90;;;12.60;77.28;98202.19;10397682;28;20272;-66
2024/03/17 17:52:48;;;;;;;4.07;3.40;;;11.80;99.90;;;12.50;77.15;98187.09;10396438;28;20312;-66
2024/03/17 17:57:57;;;;;;;4.05;3.30;;;11.80;99.90;;;12.43;79.22;98195.28;10394874;28;20313;-66
2024/03/17 18:03:02;;;;;;;3.53;3.22;;;11.70;99.90;;;12.32;79.88;98198.91;10396188;28;20264;-66
2024/03/17 18:08:11;;;;;;;3.17;2.83;;;11.50;99.90;;;12.30;80.89;98201.38;10394116;28;20257;-67
2024/03/17 18:13:13;;;;;;;5.18;4.78;;;11.50;99.90;;;12.17;82.35;98198.94;10392871;28;20268;-66
2024/03/17 18:18:18;;;;;;;7.35;5.82;;;11.40;99.90;;;12.06;82.75;98207.72;10372439;28;20316;-65
2024/03/17 18:23:24;;;;;;;6.60;5.85;;;11.30;99.90;;;11.99;84.32;98203.03;10392568;28;20319;-66
2024/03/17 18:28:27;;;;;;;6.30;5.70;;;11.20;99.90;;;11.85;84.70;98212.47;10393414;28;20320;-66
2024/03/17 18:33:31;;;;;;;5.70;5.30;;;11.10;99.90;;;11.77;85.71;98213.69;10394512;28;20245;-67
2024/03/17 18:38:36;;;;;;;5.22;4.80;;;11.00;99.90;;;11.65;86.34;98207.06;10396487;28;20280;-66
2024/03/17 18:43:46;;;;;;;4.03;3.63;;;11.00;99.90;;;11.69;86.24;98214.13;10417011;28;20280;-66
2024/03/17 18:48:52;;;;;;;6.25;4.43;;;11.00;99.90;;;11.70;86.32;98215.91;10400973;28;20253;-67
2024/03/17 18:53:55;;;;;;;4.47;4.07;;;10.90;99.90;;;11.62;87.82;98201.78;10398781;28;20311;-67
2024/03/17 18:58:57;;;;;;;4.68;4.18;;;10.90;99.90;;;11.54;87.86;98212.34;10414541;28;20313;-66
2024/03/17 19:04:02;;;;;;;5.70;5.10;;;10.80;99.90;;;11.56;88.40;98219.34;10393098;28;20363;-66
2024/03/17 19:09:07;;;;;;;5.50;4.25;;;10.80;99.90;;;11.44;88.09;98218.59;10391531;28;20689;-66
2024/03/17 19:14:11;;;;;;;5.05;4.65;;;10.70;99.90;;;11.43;87.88;98216.84;10398485;28;20261;-66
2024/03/17 19:19:13;;;;;;;22.08;13.55;;;10.70;99.90;;;11.44;88.31;98216.03;10394314;28;20359;-66
2024/03/17 19:24:17;;;;;;;6.97;6.20;;;10.70;99.90;;;11.46;88.67;98224.69;10387511;28;20312;-66
2024/03/17 19:29:19;;;;;;;7.50;6.80;;;10.60;99.90;;;11.43;90.13;98215.16;10380772;28;20332;-66
2024/03/17 19:34:21;;;;;;;9.52;8.55;;;10.60;99.90;;;11.43;91.10;98220.28;10392337;28;20745;-66
2024/03/17 19:39:24;;;;;;;25.98;17.65;;;10.60;99.90;;;11.32;90.97;98217.88;10390687;28;20323;-67
2024/03/17 19:44:27;;;;;;;16.40;11.32;;;10.50;99.90;;;11.22;92.62;98217.31;10362389;28;20656;-68
2024/03/17 19:49:29;;;;;;;9.50;8.60;;;10.40;99.90;;;11.25;92.37;98214.94;10349405;28;20667;-67
2024/03/17 19:54:33;;;;;;;6.97;6.47;;;10.40;99.90;;;11.17;93.67;98216.16;10369400;28;20741;-66
2024/03/17 19:59:36;;;;;;;5.82;5.32;;;10.40;99.90;;;11.13;93.33;98203.06;10375332;28;20342;-67
2024/03/17 20:04:40;;;;;;;8.07;6.63;;;10.30;99.90;;;11.05;94.32;98202.63;10387572;28;20226;-67
2024/03/17 20:09:43;;;;;;;6.95;6.03;;;10.30;99.90;;;10.89;93.97;98189.69;10370429;28;20222;-66
2024/03/17 20:14:45;;;;;;;10.85;9.35;;;10.10;99.90;;;10.89;95.03;98192.25;10377137;28;20317;-66
2024/03/17 20:19:48;;;;;;;9.00;8.05;;;10.20;99.90;;;10.91;94.75;98190.69;10373715;28;20366;-66
2024/03/17 20:24:52;;;;;;;9.02;7.30;;;10.10;99.90;;;10.90;95.81;98183.78;10405303;28;20321;-66
2024/03/17 20:29:55;;;;;;;7.65;6.80;;;10.10;99.90;;;10.88;95.32;98180.28;10348652;28;20321;-68
2024/03/17 20:34:58;;;;;;;6.65;6.05;;;10.10;99.90;;;10.74;95.98;98170.06;10379052;28;20313;-66
2024/03/17 20:40:01;;;;;;;5.32;4.72;;;10.00;99.90;;;10.74;95.47;98167.50;10383565;28;20344;-66
2024/03/17 20:45:04;;;;;;;5.28;4.78;;;9.90;99.90;;;10.77;96.23;98165.13;10381847;28;21234;-67
2024/03/17 20:50:09;;;;;;;6.30;4.95;;;10.00;99.90;;;10.74;96.97;98167.50;10384605;28;20322;-66
2024/03/17 20:55:15;;;;;;;5.05;4.60;;;10.00;99.90;;;10.64;96.57;98170.28;10386166;28;20308;-66
2024/03/17 21:00:21;;;;;;;5.68;5.18;;;9.90;99.90;;;10.64;95.96;98177.94;10402328;28;21085;-66
2024/03/17 21:05:26;;;;;;;4.55;4.25;;;9.90;99.90;;;10.57;96.45;98175.81;10395223;28;20783;-66
2024/03/17 21:10:29;;;;;;;5.60;5.10;;;9.80;99.90;;;10.53;97.38;98171.28;10393405;28;20324;-66
2024/03/17 21:15:34;;;;;;;5.95;5.03;;;9.70;99.90;;;10.36;98.34;98173.69;10411725;28;20260;-66
2024/03/17 21:20:36;;;;;;;5.63;5.10;;;9.60;99.90;;;10.24;98.67;98162.66;10391415;28;20258;-66